Wardeh — ODUS — position and weather

sailwx.info

Track history (hours):
 
Tides and Currents Weather Stations Pressure Air Temp Water Temp Dewpoint Dewpoint Depression Visibility Wind Speed Wind Dir Waves Ship Positions

Wardeh

Last reported at 2016-Jul-18 13:31 UTC. Time now 2016-Jul-30 03:31 UTC.
Position N 32°07' W 010°21'.
Warning: this ship's position is 11 days out of date.

; draft 7 m.

Type: Cargo ship. MMSI: 450522000.

Date/timePositionNaut miles runAvg speedWind from/ knotsBaromVisibWave heightAir tempDewpointWater temp
2016-Jul-18 13:31N 32°07' W 010°21'10 9.7
2016-Jul-18 12:27N 32°15' W 010°12'10 9.6
2016-Jul-18 11:21N 32°22' W 010°04'31313.7
2016-Jul-17 12:33N 35°59' W 005°31'10 9.2
2016-Jul-17 11:31N 35°55' W 005°20'0 0.1
2016-Jul-17 10:31N 35°55' W 005°20'0 0.0
2016-Jul-17 09:31N 35°55' W 005°20'0 0.0
2016-Jul-17 08:31N 35°55' W 005°20'0 0.0
2016-Jul-17 07:28N 35°55' W 005°20'0 0.0
2016-Jul-17 06:31N 35°55' W 005°20'6 3.1
2016-Jul-17 04:34N 35°56' W 005°13'226 4.7
2016-Jul-15 04:17N 37°35' W 000°59'3 0.1
2016-Jul-14 04:28N 37°33' W 000°59'6 6.3
2016-Jul-14 03:33N 37°27' W 000°57'1 1.1
2016-Jul-14 02:24N 37°28' W 000°56'1 1.2
2016-Jul-14 01:33N 37°28' W 000°54'1 1.5
2016-Jul-14 00:33N 37°28' W 000°53'6 6.2
2016-Jul-13 23:33N 37°29' W 000°45'7 6.4
2016-Jul-13 22:26N 37°28' W 000°36'7 7.8
2016-Jul-13 21:33N 37°28' W 000°27'42214.1
2016-Jul-12 15:30N 37°37' E 008°25'1515.0
2016-Jul-12 14:31N 37°37' E 008°44'1514.6
2016-Jul-12 13:30N 37°38' E 009°03'1414.3
2016-Jul-12 12:32N 37°38' E 009°20'1814.2
2016-Jul-12 11:17N 37°38' E 009°42'1614.2
2016-Jul-12 10:10N 37°38' E 010°03'1214.5
2016-Jul-12 09:20N 37°38' E 010°18'1514.8
2016-Jul-12 08:19N 37°34' E 010°36'1114.8
2016-Jul-12 07:33N 37°31' E 010°50'1514.7
2016-Jul-12 06:33N 37°28' E 011°08'1514.8
2016-Jul-12 05:33N 37°22' E 011°25'1414.5
2016-Jul-12 04:33N 37°16' E 011°42'1514.6
2016-Jul-12 03:32N 37°10' E 011°59'1414.4
2016-Jul-12 02:33N 37°06' E 012°16'1514.6
2016-Jul-12 01:33N 37°02' E 012°34'1514.9
2016-Jul-12 00:34N 36°58' E 012°51'1514.6
2016-Jul-11 23:33N 36°51' E 013°08'1413.9
2016-Jul-11 22:33N 36°46' E 013°24'1414.3
2016-Jul-11 21:33N 36°41' E 013°41'1414.1
2016-Jul-11 20:33N 36°36' E 013°57'1414.1
2016-Jul-11 19:33N 36°30' E 014°13'1414.3
2016-Jul-11 18:33N 36°25' E 014°30'1514.7
2016-Jul-11 17:34N 36°20' E 014°47'1515.0
2016-Jul-11 16:33N 36°16' E 015°05'1514.8
2016-Jul-11 15:33N 36°12' E 015°23'1414.7
2016-Jul-11 14:34N 36°08' E 015°40'1514.7
2016-Jul-11 13:33N 36°03' E 015°57'1514.8
2016-Jul-11 12:33N 35°59' E 016°15'1514.8
2016-Jul-11 11:33N 35°56' E 016°33'71514.4
2016-Jul-09 10:03N 34°13' E 030°57'714.0
2016-Jul-09 09:33N 34°12' E 031°05'1414.2
2016-Jul-09 08:34N 34°11' E 031°22'2814.1
2016-Jul-09 06:33N 34°09' E 031°56'8614.3
2016-Jul-09 00:33N 34°02' E 033°39'1514.8
2016-Jul-08 23:34N 34°01' E 033°57'1514.7
2016-Jul-08 22:33N 33°60' E 034°15'1514.8
2016-Jul-08 21:34N 33°58' E 034°33'1514.9
2016-Jul-08 20:33N 33°57' E 034°51'1514.7
2016-Jul-08 19:34N 33°56' E 035°08'1413.9
2016-Jul-08 18:31N 33°55' E 035°26'  
Track history (hours):
 
Tides and Currents Weather Stations Pressure Air Temp Water Temp Dewpoint Dewpoint Depression Visibility Wind Speed Wind Dir Waves Ship Positions

Wardeh

Last reported at 2016-Jul-18 13:31 UTC. Time now 2016-Jul-30 03:31 UTC.
Position N 32°07' W 010°21'.
Warning: this ship's position is 11 days out of date.

; draft 7 m.

Type: Cargo ship. MMSI: 450522000.

Date/timePositionNaut miles runAvg speedWind from/ knotsBaromVisibWave heightAir tempDewpointWater temp
2016-Jul-18 13:31N 32°07' W 010°21'10 9.7
2016-Jul-18 12:27N 32°15' W 010°12'10 9.6
2016-Jul-18 11:21N 32°22' W 010°04'31313.7
2016-Jul-17 12:33N 35°59' W 005°31'10 9.2
2016-Jul-17 11:31N 35°55' W 005°20'0 0.1
2016-Jul-17 10:31N 35°55' W 005°20'0 0.0
2016-Jul-17 09:31N 35°55' W 005°20'0 0.0
2016-Jul-17 08:31N 35°55' W 005°20'0 0.0
2016-Jul-17 07:28N 35°55' W 005°20'0 0.0
2016-Jul-17 06:31N 35°55' W 005°20'6 3.1
2016-Jul-17 04:34N 35°56' W 005°13'226 4.7
2016-Jul-15 04:17N 37°35' W 000°59'3 0.1
2016-Jul-14 04:28N 37°33' W 000°59'6 6.3
2016-Jul-14 03:33N 37°27' W 000°57'1 1.1
2016-Jul-14 02:24N 37°28' W 000°56'1 1.2
2016-Jul-14 01:33N 37°28' W 000°54'1 1.5
2016-Jul-14 00:33N 37°28' W 000°53'6 6.2
2016-Jul-13 23:33N 37°29' W 000°45'7 6.4
2016-Jul-13 22:26N 37°28' W 000°36'7 7.8
2016-Jul-13 21:33N 37°28' W 000°27'42214.1
2016-Jul-12 15:30N 37°37' E 008°25'1515.0
2016-Jul-12 14:31N 37°37' E 008°44'1514.6
2016-Jul-12 13:30N 37°38' E 009°03'1414.3
2016-Jul-12 12:32N 37°38' E 009°20'1814.2
2016-Jul-12 11:17N 37°38' E 009°42'1614.2
2016-Jul-12 10:10N 37°38' E 010°03'1214.5
2016-Jul-12 09:20N 37°38' E 010°18'1514.8
2016-Jul-12 08:19N 37°34' E 010°36'1114.8
2016-Jul-12 07:33N 37°31' E 010°50'1514.7
2016-Jul-12 06:33N 37°28' E 011°08'1514.8
2016-Jul-12 05:33N 37°22' E 011°25'1414.5
2016-Jul-12 04:33N 37°16' E 011°42'1514.6
2016-Jul-12 03:32N 37°10' E 011°59'1414.4
2016-Jul-12 02:33N 37°06' E 012°16'1514.6
2016-Jul-12 01:33N 37°02' E 012°34'1514.9
2016-Jul-12 00:34N 36°58' E 012°51'1514.6
2016-Jul-11 23:33N 36°51' E 013°08'1413.9
2016-Jul-11 22:33N 36°46' E 013°24'1414.3
2016-Jul-11 21:33N 36°41' E 013°41'1414.1
2016-Jul-11 20:33N 36°36' E 013°57'1414.1
2016-Jul-11 19:33N 36°30' E 014°13'1414.3
2016-Jul-11 18:33N 36°25' E 014°30'1514.7
2016-Jul-11 17:34N 36°20' E 014°47'1515.0
2016-Jul-11 16:33N 36°16' E 015°05'1514.8
2016-Jul-11 15:33N 36°12' E 015°23'1414.7
2016-Jul-11 14:34N 36°08' E 015°40'1514.7
2016-Jul-11 13:33N 36°03' E 015°57'1514.8
2016-Jul-11 12:33N 35°59' E 016°15'1514.8
2016-Jul-11 11:33N 35°56' E 016°33'71514.4
2016-Jul-09 10:03N 34°13' E 030°57'714.0
2016-Jul-09 09:33N 34°12' E 031°05'1414.2
2016-Jul-09 08:34N 34°11' E 031°22'2814.1
2016-Jul-09 06:33N 34°09' E 031°56'8614.3
2016-Jul-09 00:33N 34°02' E 033°39'1514.8
2016-Jul-08 23:34N 34°01' E 033°57'1514.7
2016-Jul-08 22:33N 33°60' E 034°15'1514.8
2016-Jul-08 21:34N 33°58' E 034°33'1514.9
2016-Jul-08 20:33N 33°57' E 034°51'1514.7
2016-Jul-08 19:34N 33°56' E 035°08'1413.9
2016-Jul-08 18:31N 33°55' E 035°26'  

Dump ship's entire track history